Time;durP1;ratioP1;P1;durP2;ratioP2;P2;SDS_P1;SDS_P2;PMS_P1;PMS_P2;Temp;Humidity;BMP_temperature;BMP_pressure;BME280_temperature;BME280_humidity;BME280_pressure;Samples;Min_cycle;Max_cycle;Signal;HPM_P1;HPM_P2
2023/12/13 00:00:31;;;;;;;0.30;0.10;;;8.60;99.90;;;;;;5135726;27;20426;-64
2023/12/13 00:02:59;;;;;;;0.30;0.10;;;8.60;99.90;;;;;;5136165;27;20410;-64
2023/12/13 00:05:27;;;;;;;0.30;0.10;;;8.60;99.90;;;;;;5136382;27;20422;-64
2023/12/13 00:07:54;;;;;;;0.30;0.10;;;8.60;99.90;;;;;;5136538;27;20422;-64
2023/12/13 00:10:21;;;;;;;0.30;0.10;;;8.60;99.90;;;;;;5136237;27;20756;-63
2023/12/13 00:12:48;;;;;;;0.30;0.10;;;8.60;99.90;;;;;;5135882;27;20418;-63
2023/12/13 00:15:15;;;;;;;0.30;0.10;;;8.50;99.90;;;;;;5135990;27;20859;-63
2023/12/13 00:17:53;;;;;;;0.30;0.10;;;8.60;99.90;;;;;;5135463;27;20849;-62
2023/12/13 00:20:20;;;;;;;0.30;0.10;;;8.60;99.90;;;;;;5135600;27;20487;-63
2023/12/13 00:22:48;;;;;;;0.30;0.10;;;8.70;99.90;;;;;;5134779;27;20707;-63
2023/12/13 00:25:15;;;;;;;0.30;0.10;;;8.60;99.90;;;;;;5134627;27;20451;-62
2023/12/13 00:27:42;;;;;;;0.30;0.10;;;8.60;99.90;;;;;;5136004;27;20515;-63
2023/12/13 00:30:10;;;;;;;0.30;0.10;;;8.50;99.90;;;;;;5134715;27;20406;-63
2023/12/13 00:32:37;;;;;;;0.30;0.10;;;8.50;99.90;;;;;;5134277;27;20752;-63
2023/12/13 00:35:06;;;;;;;0.30;0.10;;;8.50;99.90;;;;;;5134291;27;20839;-62
2023/12/13 00:37:33;;;;;;;0.30;0.10;;;8.50;99.90;;;;;;5133813;27;20526;-62
2023/12/13 00:40:01;;;;;;;0.30;0.10;;;8.50;99.90;;;;;;5133342;27;20434;-61
2023/12/13 00:42:28;;;;;;;0.30;0.10;;;8.50;99.90;;;;;;5134273;27;20425;-62
2023/12/13 00:44:55;;;;;;;0.30;0.10;;;8.50;99.90;;;;;;5139475;27;20465;-62
2023/12/13 00:47:22;;;;;;;0.30;0.10;;;8.40;99.90;;;;;;5156544;27;20420;-62
2023/12/13 00:49:49;;;;;;;0.43;0.17;;;8.40;99.90;;;;;;5156403;27;20412;-62
2023/12/13 00:52:16;;;;;;;0.30;0.10;;;8.40;99.90;;;;;;5156816;27;20420;-61
2023/12/13 00:54:43;;;;;;;0.30;0.10;;;8.40;99.90;;;;;;5156344;27;20425;-63
2023/12/13 00:57:12;;;;;;;0.30;0.10;;;8.40;99.90;;;;;;5144191;27;20402;-60
2023/12/13 00:59:39;;;;;;;0.30;0.10;;;8.30;99.90;;;;;;5135408;27;20442;-61
2023/12/13 01:02:07;;;;;;;0.30;0.10;;;8.30;99.90;;;;;;5135691;28;20422;-61
2023/12/13 01:04:36;;;;;;;0.30;0.10;;;8.30;99.90;;;;;;5135650;28;21108;-61
2023/12/13 01:07:03;;;;;;;0.30;0.10;;;8.20;99.90;;;;;;5135178;28;20433;-61
2023/12/13 01:09:30;;;;;;;0.30;0.10;;;8.20;99.90;;;;;;5135227;28;20406;-60
2023/12/13 01:11:57;;;;;;;0.30;0.10;;;8.10;99.90;;;;;;5135344;28;20829;-61
2023/12/13 01:14:25;;;;;;;0.30;0.10;;;8.10;99.90;;;;;;5135441;28;20422;-61
2023/12/13 01:16:52;;;;;;;0.30;0.10;;;8.20;99.90;;;;;;5135231;28;20422;-61
2023/12/13 01:19:19;;;;;;;0.30;0.10;;;8.20;99.90;;;;;;5135713;28;20437;-60
2023/12/13 01:21:47;;;;;;;0.30;0.10;;;8.10;99.90;;;;;;5135428;28;20471;-60
2023/12/13 01:24:14;;;;;;;0.30;0.20;;;8.10;99.90;;;;;;5135315;28;20415;-61
2023/12/13 01:26:40;;;;;;;0.30;0.10;;;8.20;99.90;;;;;;5134121;28;20475;-60
2023/12/13 01:29:07;;;;;;;0.30;0.10;;;8.20;99.90;;;;;;5134416;28;20422;-61
2023/12/13 01:31:36;;;;;;;0.30;0.10;;;8.10;99.90;;;;;;5137009;27;20418;-61
2023/12/13 01:34:03;;;;;;;0.30;0.10;;;8.20;99.90;;;;;;5137912;27;20513;-62
2023/12/13 01:36:30;;;;;;;0.30;0.10;;;8.20;99.90;;;;;;5137895;27;20414;-61
2023/12/13 01:38:57;;;;;;;0.30;0.10;;;8.10;99.90;;;;;;5138842;27;20459;-62
2023/12/13 01:41:24;;;;;;;0.30;0.10;;;8.10;99.90;;;;;;5139056;27;20426;-61
2023/12/13 01:43:51;;;;;;;0.30;0.10;;;8.10;99.90;;;;;;5139012;27;20429;-61
2023/12/13 01:46:18;;;;;;;0.30;0.10;;;8.00;99.90;;;;;;5138740;27;20554;-61
2023/12/13 01:48:47;;;;;;;0.30;0.10;;;8.10;99.90;;;;;;5130181;27;20422;-61
2023/12/13 01:51:14;;;;;;;0.30;0.10;;;8.20;99.90;;;;;;5139123;27;20475;-61
2023/12/13 01:53:42;;;;;;;0.30;0.10;;;8.20;99.90;;;;;;5137499;27;20720;-61
2023/12/13 01:56:12;;;;;;;0.30;0.10;;;8.20;99.90;;;;;;5118670;28;20423;-61
2023/12/13 01:58:40;;;;;;;0.30;0.10;;;8.30;99.90;;;;;;5118567;28;20933;-61
2023/12/13 02:01:07;;;;;;;0.30;0.10;;;8.40;99.90;;;;;;5118021;28;20704;-61
2023/12/13 02:03:36;;;;;;;0.30;0.10;;;8.20;99.90;;;;;;5118541;28;20412;-61
2023/12/13 02:06:05;;;;;;;0.30;0.10;;;8.20;99.90;;;;;;5117944;28;20469;-61
2023/12/13 02:08:33;;;;;;;0.30;0.10;;;8.20;99.90;;;;;;5137686;27;20474;-61
2023/12/13 02:11:00;;;;;;;0.30;0.10;;;8.10;99.90;;;;;;5138139;27;20772;-60
2023/12/13 02:13:27;;;;;;;0.30;0.10;;;8.20;99.90;;;;;;5138990;27;20483;-61
2023/12/13 02:15:54;;;;;;;0.30;0.10;;;8.10;99.90;;;;;;5138589;27;20479;-61
2023/12/13 02:18:21;;;;;;;0.30;0.10;;;8.10;99.90;;;;;;5137744;27;20730;-60
2023/12/13 02:20:51;;;;;;;0.30;0.10;;;8.00;99.90;;;;;;5137869;27;20719;-60
2023/12/13 02:23:19;;;;;;;0.30;0.10;;;8.00;99.90;;;;;;5138062;27;20423;-60
2023/12/13 02:25:53;;;;;;;0.30;0.10;;;8.00;99.90;;;;;;5137371;27;20471;-60
2023/12/13 02:28:21;;;;;;;0.30;0.10;;;8.00;99.90;;;;;;5137793;27;20414;-60
2023/12/13 02:30:51;;;;;;;0.30;0.10;;;8.00;99.90;;;;;;5137518;27;20426;-60
2023/12/13 02:33:18;;;;;;;0.30;0.10;;;7.90;99.90;;;;;;5137566;27;20419;-60
2023/12/13 02:35:45;;;;;;;0.30;0.10;;;7.90;99.90;;;;;;5129432;27;20414;-59
2023/12/13 02:38:12;;;;;;;0.30;0.10;;;7.80;99.90;;;;;;5138115;27;20467;-60
2023/12/13 02:40:40;;;;;;;0.30;0.10;;;7.90;99.90;;;;;;5138170;27;20446;-59
2023/12/13 02:43:07;;;;;;;0.30;0.10;;;7.90;99.90;;;;;;5137283;27;20431;-60
2023/12/13 02:45:34;;;;;;;0.30;0.10;;;8.00;99.90;;;;;;5138287;27;20517;-60
2023/12/13 02:48:01;;;;;;;0.30;0.10;;;8.00;99.90;;;;;;5137784;27;20764;-60
2023/12/13 02:50:28;;;;;;;0.30;0.10;;;8.00;99.90;;;;;;5137795;27;20423;-60
2023/12/13 02:52:55;;;;;;;0.30;0.10;;;8.00;99.90;;;;;;5137791;27;20857;-60
2023/12/13 02:55:22;;;;;;;0.30;0.10;;;8.00;99.90;;;;;;5137811;27;20422;-60
2023/12/13 02:57:50;;;;;;;0.30;0.10;;;8.00;99.90;;;;;;5137029;27;20775;-60
2023/12/13 03:00:17;;;;;;;0.30;0.10;;;8.00;99.90;;;;;;5137001;27;20422;-60
2023/12/13 03:02:44;;;;;;;0.30;0.10;;;7.90;99.90;;;;;;5137884;27;20473;-59
2023/12/13 03:05:11;;;;;;;0.30;0.10;;;7.90;99.90;;;;;;5138171;27;20422;-59
2023/12/13 03:07:40;;;;;;;0.30;0.10;;;7.90;99.90;;;;;;5137420;27;20423;-59
2023/12/13 03:10:08;;;;;;;0.30;0.10;;;7.90;99.90;;;;;;5137733;27;20852;-59
2023/12/13 03:12:35;;;;;;;0.30;0.10;;;7.90;99.90;;;;;;5137217;27;20415;-59
2023/12/13 03:15:04;;;;;;;0.30;0.10;;;8.00;99.90;;;;;;5137102;27;20411;-59
2023/12/13 03:17:31;;;;;;;0.30;0.10;;;8.00;99.90;;;;;;5137226;27;20430;-60
2023/12/13 03:19:58;;;;;;;0.30;0.10;;;8.00;99.90;;;;;;5137204;27;20426;-60
2023/12/13 03:22:25;;;;;;;0.30;0.10;;;8.00;99.90;;;;;;5136525;27;20827;-60
2023/12/13 03:24:52;;;;;;;0.30;0.10;;;8.00;99.90;;;;;;5137013;27;20475;-60
2023/12/13 03:27:19;;;;;;;0.30;0.10;;;8.00;99.90;;;;;;5136905;27;20410;-60
2023/12/13 03:29:46;;;;;;;0.30;0.10;;;8.00;99.90;;;;;;5136046;27;20410;-60
2023/12/13 03:32:14;;;;;;;0.30;0.10;;;7.90;99.90;;;;;;5135710;27;20503;-59
2023/12/13 03:34:42;;;;;;;0.30;0.10;;;8.10;99.90;;;;;;5136096;27;20448;-60
2023/12/13 03:37:09;;;;;;;0.30;0.10;;;8.20;99.90;;;;;;5135280;27;20426;-60
2023/12/13 03:39:36;;;;;;;0.30;0.10;;;8.40;99.90;;;;;;5135185;27;20468;-60
2023/12/13 03:42:04;;;;;;;0.30;0.10;;;8.60;99.90;;;;;;5135403;27;20426;-60
2023/12/13 03:44:31;;;;;;;0.30;0.10;;;8.60;99.90;;;;;;5136861;27;20429;-60
2023/12/13 03:46:58;;;;;;;0.30;0.10;;;8.70;99.90;;;;;;5137287;27;20418;-60
2023/12/13 03:49:26;;;;;;;0.30;0.10;;;8.70;99.90;;;;;;5136972;27;20418;-60
2023/12/13 03:51:53;;;;;;;0.30;0.10;;;8.70;99.90;;;;;;5137121;27;20479;-60
2023/12/13 03:54:20;;;;;;;0.30;0.10;;;8.70;99.90;;;;;;5136152;27;20431;-59
2023/12/13 03:56:47;;;;;;;0.30;0.10;;;8.60;99.90;;;;;;5136670;27;20415;-60
2023/12/13 03:59:14;;;;;;;0.30;0.10;;;8.50;99.90;;;;;;5136375;27;20415;-60
2023/12/13 04:01:41;;;;;;;0.30;0.10;;;8.30;99.90;;;;;;5136492;27;20435;-60
2023/12/13 04:04:08;;;;;;;0.30;0.10;;;8.40;99.90;;;;;;5136405;27;20439;-60
2023/12/13 04:06:36;;;;;;;0.30;0.10;;;8.40;99.90;;;;;;5136290;27;20411;-60
2023/12/13 04:09:03;;;;;;;0.30;0.10;;;8.40;99.90;;;;;;5136242;27;20474;-60
2023/12/13 04:11:30;;;;;;;0.30;0.10;;;8.30;99.90;;;;;;5136414;27;20441;-60
2023/12/13 04:13:57;;;;;;;0.30;0.10;;;8.10;99.90;;;;;;5135784;27;20414;-60
2023/12/13 04:16:26;;;;;;;0.30;0.10;;;7.80;99.90;;;;;;5135691;27;21010;-61
2023/12/13 04:18:53;;;;;;;0.30;0.10;;;7.70;99.90;;;;;;5134276;27;20508;-61
2023/12/13 04:21:20;;;;;;;0.30;0.10;;;7.60;99.90;;;;;;5134099;27;20772;-60
2023/12/13 04:23:48;;;;;;;0.30;0.10;;;7.60;99.90;;;;;;5133841;27;20475;-61
2023/12/13 04:26:15;;;;;;;0.30;0.10;;;7.60;99.90;;;;;;5135649;27;20440;-61
2023/12/13 04:28:42;;;;;;;0.30;0.10;;;7.60;99.90;;;;;;5135942;27;20856;-62
2023/12/13 04:31:09;;;;;;;0.30;0.10;;;7.60;99.90;;;;;;5135303;27;20422;-61
2023/12/13 04:33:36;;;;;;;0.30;0.10;;;7.60;99.90;;;;;;5135205;27;20467;-61
2023/12/13 04:36:04;;;;;;;0.30;0.10;;;7.60;99.90;;;;;;5135135;27;20718;-61
2023/12/13 04:38:31;;;;;;;0.30;0.10;;;7.50;99.90;;;;;;5135411;27;20910;-61
2023/12/13 04:40:59;;;;;;;0.30;0.10;;;7.60;99.90;;;;;;5135265;27;20479;-61
2023/12/13 04:43:26;;;;;;;0.30;0.10;;;7.60;99.90;;;;;;5134714;27;20419;-61
2023/12/13 04:45:53;;;;;;;0.30;0.10;;;7.60;99.90;;;;;;5134702;27;20419;-61
2023/12/13 04:48:20;;;;;;;0.30;0.10;;;7.60;99.90;;;;;;5133918;27;20410;-61
2023/12/13 04:50:47;;;;;;;0.30;0.10;;;7.70;99.90;;;;;;5133628;27;20452;-62
2023/12/13 04:53:14;;;;;;;0.30;0.10;;;7.70;99.90;;;;;;5133597;27;20415;-61
2023/12/13 04:55:41;;;;;;;0.30;0.10;;;7.70;99.90;;;;;;5133819;27;21049;-62
2023/12/13 04:58:09;;;;;;;0.30;0.10;;;7.80;99.90;;;;;;5134602;27;20496;-62
2023/12/13 05:00:37;;;;;;;0.30;0.10;;;7.80;99.90;;;;;;5133663;27;20426;-61
2023/12/13 05:03:04;;;;;;;0.30;0.10;;;7.80;99.90;;;;;;5134327;27;20415;-61
2023/12/13 05:05:30;;;;;;;0.30;0.10;;;8.00;99.90;;;;;;5133790;27;20845;-61
2023/12/13 05:07:57;;;;;;;0.30;0.10;;;8.00;99.90;;;;;;5133579;28;20414;-62
2023/12/13 05:10:24;;;;;;;0.30;0.10;;;8.00;99.90;;;;;;5134185;28;20414;-61
2023/12/13 05:12:51;;;;;;;0.30;0.10;;;8.00;99.90;;;;;;5134360;28;20418;-61
2023/12/13 05:15:20;;;;;;;0.30;0.10;;;7.90;99.90;;;;;;5134673;28;20872;-61
2023/12/13 05:17:47;;;;;;;0.30;0.10;;;7.90;99.90;;;;;;5135014;28;20423;-61
2023/12/13 05:20:14;;;;;;;0.30;0.10;;;7.90;99.90;;;;;;5134457;27;20426;-61
2023/12/13 05:22:41;;;;;;;0.30;0.10;;;7.90;99.90;;;;;;5134501;28;20925;-61
2023/12/13 05:25:09;;;;;;;0.30;0.10;;;8.00;99.90;;;;;;5135216;28;20747;-61
2023/12/13 05:27:36;;;;;;;0.30;0.10;;;8.00;99.90;;;;;;5134774;28;20453;-61
2023/12/13 05:30:03;;;;;;;0.30;0.10;;;7.90;99.90;;;;;;5134017;28;20418;-61
2023/12/13 05:32:31;;;;;;;0.30;0.10;;;7.90;99.90;;;;;;5132736;28;20426;-62
2023/12/13 05:34:58;;;;;;;0.40;0.10;;;8.00;99.90;;;;;;5128915;28;20419;-61
2023/12/13 05:37:25;;;;;;;0.30;0.10;;;7.90;99.90;;;;;;5133534;28;20471;-61
2023/12/13 05:39:52;;;;;;;0.30;0.10;;;7.90;99.90;;;;;;5134684;28;20826;-61
2023/12/13 05:42:19;;;;;;;0.30;0.10;;;7.90;99.90;;;;;;5134307;28;20430;-61
2023/12/13 05:44:46;;;;;;;0.30;0.10;;;7.90;99.90;;;;;;5134580;28;20463;-61
2023/12/13 05:47:14;;;;;;;0.30;0.10;;;7.90;99.90;;;;;;5134779;28;20520;-60
2023/12/13 05:49:43;;;;;;;0.30;0.10;;;7.90;99.90;;;;;;5134618;28;20505;-60
2023/12/13 05:52:10;;;;;;;0.30;0.30;;;7.90;99.90;;;;;;5132570;28;20437;-61
2023/12/13 05:54:37;;;;;;;0.30;0.10;;;7.90;99.90;;;;;;5133216;28;20496;-61
2023/12/13 05:57:04;;;;;;;0.30;0.10;;;7.90;99.90;;;;;;5133695;28;20496;-61
2023/12/13 05:59:32;;;;;;;0.30;0.10;;;8.00;99.90;;;;;;5147937;27;20434;-61
2023/12/13 06:01:59;;;;;;;0.30;0.10;;;7.90;99.90;;;;;;5133596;28;20436;-60
2023/12/13 06:04:26;;;;;;;0.30;0.10;;;8.00;99.90;;;;;;5133548;28;20453;-61
2023/12/13 06:06:54;;;;;;;0.30;0.10;;;8.00;99.90;;;;;;5131444;28;20434;-60
2023/12/13 06:09:21;;;;;;;0.30;0.10;;;8.10;99.90;;;;;;5134117;28;20854;-64
2023/12/13 06:11:49;;;;;;;0.30;0.10;;;8.00;99.90;;;;;;5137709;27;20480;-60
2023/12/13 06:14:16;;;;;;;0.30;0.10;;;8.10;99.90;;;;;;5154624;27;20481;-60
2023/12/13 06:16:43;;;;;;;0.30;0.10;;;8.10;99.90;;;;;;5155243;27;20843;-60
2023/12/13 06:19:10;;;;;;;0.30;0.10;;;8.10;99.90;;;;;;5157674;27;20422;-60
2023/12/13 06:21:37;;;;;;;0.30;0.10;;;8.20;99.90;;;;;;5158517;27;20731;-61
2023/12/13 06:24:06;;;;;;;0.30;0.10;;;8.30;99.90;;;;;;5145554;27;20421;-61
2023/12/13 06:26:33;;;;;;;0.30;0.10;;;8.50;99.90;;;;;;5137682;27;20419;-61
2023/12/13 06:29:00;;;;;;;0.30;0.10;;;8.50;99.90;;;;;;5136149;27;20423;-61
2023/12/13 06:31:27;;;;;;;0.30;0.10;;;8.50;99.90;;;;;;5136301;27;20808;-60
2023/12/13 06:33:54;;;;;;;0.30;0.10;;;8.50;99.90;;;;;;5136943;27;20422;-61
2023/12/13 06:36:21;;;;;;;0.30;0.10;;;8.50;99.90;;;;;;5137633;27;20725;-61
2023/12/13 06:38:49;;;;;;;0.30;0.10;;;8.70;99.90;;;;;;5136962;27;20415;-61
2023/12/13 06:41:17;;;;;;;0.30;0.10;;;8.70;99.90;;;;;;5133145;27;20505;-61
2023/12/13 06:43:44;;;;;;;0.30;0.10;;;8.70;99.90;;;;;;5127905;27;20468;-62
2023/12/13 06:46:11;;;;;;;0.30;0.10;;;8.80;99.90;;;;;;5136984;27;20414;-61
2023/12/13 06:48:38;;;;;;;0.30;0.10;;;8.70;99.90;;;;;;5136411;27;20483;-62
2023/12/13 06:51:06;;;;;;;0.30;0.10;;;8.60;99.90;;;;;;5136625;27;20411;-62
2023/12/13 06:53:33;;;;;;;0.30;0.10;;;8.60;99.90;;;;;;5136931;27;20422;-60
2023/12/13 06:56:00;;;;;;;0.30;0.10;;;8.60;99.90;;;;;;5136227;27;20490;-60
2023/12/13 06:58:29;;;;;;;0.30;0.10;;;8.60;99.90;;;;;;5136761;27;20419;-62
2023/12/13 07:00:56;;;;;;;0.30;0.10;;;8.60;99.90;;;;;;5124348;27;20697;-63
2023/12/13 07:03:23;;;;;;;0.30;0.10;;;8.50;99.90;;;;;;5115267;28;20469;-59
2023/12/13 07:05:50;;;;;;;0.30;0.10;;;8.60;99.90;;;;;;5126082;27;20485;-59
2023/12/13 07:08:17;;;;;;;0.30;0.10;;;8.50;99.90;;;;;;5128727;27;20450;-59
2023/12/13 07:10:44;;;;;;;0.30;0.10;;;8.50;99.90;;;;;;5120301;27;20440;-61
2023/12/13 07:13:11;;;;;;;0.30;0.10;;;8.50;99.90;;;;;;5118772;27;20533;-59
2023/12/13 07:15:39;;;;;;;0.30;0.10;;;8.50;99.90;;;;;;5129410;27;20860;-60
2023/12/13 07:18:06;;;;;;;0.30;0.10;;;8.50;99.90;;;;;;5116414;27;20514;-62
2023/12/13 07:20:34;;;;;;;0.30;0.10;;;8.40;99.90;;;;;;5132782;27;20434;-60
2023/12/13 07:23:01;;;;;;;0.30;0.10;;;8.40;99.90;;;;;;5130890;27;20733;-60
2023/12/13 07:25:28;;;;;;;0.30;0.10;;;8.40;99.90;;;;;;5131770;27;20889;-60
2023/12/13 07:27:55;;;;;;;0.30;0.20;;;8.40;99.90;;;;;;5131904;27;20914;-60
2023/12/13 07:30:23;;;;;;;0.30;0.10;;;8.40;99.90;;;;;;5129900;27;20433;-60
2023/12/13 07:32:53;;;;;;;0.30;0.10;;;8.50;99.90;;;;;;5120386;27;20729;-60
2023/12/13 07:35:20;;;;;;;0.30;0.10;;;8.50;99.90;;;;;;5125802;27;20430;-59
2023/12/13 07:37:48;;;;;;;0.30;0.10;;;8.50;99.90;;;;;;5129843;27;20491;-60
2023/12/13 07:40:15;;;;;;;0.30;0.10;;;8.50;99.90;;;;;;5131184;27;20466;-59
2023/12/13 07:42:42;;;;;;;0.30;0.10;;;8.50;99.90;;;;;;5113581;28;20436;-60
2023/12/13 07:45:11;;;;;;;0.30;0.10;;;8.50;99.90;;;;;;5122227;27;20921;-60
2023/12/13 07:47:39;;;;;;;0.30;0.10;;;8.50;99.90;;;;;;5134875;27;20738;-60
2023/12/13 07:50:08;;;;;;;0.30;0.10;;;8.40;99.90;;;;;;5131041;27;20469;-60
2023/12/13 07:52:35;;;;;;;0.30;0.10;;;8.40;99.90;;;;;;5130811;27;20458;-61
2023/12/13 07:55:02;;;;;;;0.30;0.10;;;8.40;99.90;;;;;;5132274;27;20491;-60
2023/12/13 07:57:30;;;;;;;0.30;0.10;;;8.40;99.90;;;;;;5128940;27;20428;-61
2023/12/13 07:59:57;;;;;;;0.30;0.10;;;8.50;99.90;;;;;;5131945;27;20440;-60
2023/12/13 08:02:24;;;;;;;0.30;0.10;;;8.40;99.90;;;;;;5112734;28;20444;-61
2023/12/13 08:04:51;;;;;;;0.30;0.10;;;8.40;99.90;;;;;;5113351;27;20435;-61
2023/12/13 08:07:19;;;;;;;0.30;0.10;;;8.40;99.90;;;;;;5120968;27;20444;-60
2023/12/13 08:09:46;;;;;;;0.30;0.10;;;8.40;99.90;;;;;;5113410;27;20781;-60
2023/12/13 08:12:13;;;;;;;0.30;0.10;;;8.40;99.90;;;;;;5132368;27;21042;-60
2023/12/13 08:14:41;;;;;;;0.30;0.10;;;8.40;99.90;;;;;;5125580;27;20467;-60
2023/12/13 08:17:09;;;;;;;0.30;0.10;;;8.40;99.90;;;;;;5132489;27;20435;-60
2023/12/13 08:19:37;;;;;;;0.30;0.10;;;8.40;99.90;;;;;;5130400;27;20521;-60
2023/12/13 08:22:04;;;;;;;0.75;0.10;;;8.40;99.90;;;;;;5129113;27;20798;-60
2023/12/13 08:24:33;;;;;;;0.40;0.10;;;8.40;99.90;;;;;;5131526;27;20495;-60
2023/12/13 08:27:00;;;;;;;0.30;0.10;;;8.40;99.90;;;;;;5132848;27;20928;-60
2023/12/13 08:29:27;;;;;;;1.00;0.20;;;8.40;99.90;;;;;;5128407;27;20441;-60
2023/12/13 08:31:54;;;;;;;0.32;0.20;;;8.40;99.90;;;;;;5115103;27;20481;-60
2023/12/13 08:34:21;;;;;;;0.40;0.10;;;8.30;99.90;;;;;;5121213;27;20579;-60
2023/12/13 08:36:48;;;;;;;0.50;0.20;;;8.30;99.90;;;;;;5124013;27;20438;-60
2023/12/13 08:39:15;;;;;;;0.40;0.20;;;8.30;99.90;;;;;;5134141;27;20410;-60
2023/12/13 08:41:43;;;;;;;2.22;0.20;;;8.30;99.90;;;;;;5127000;27;20423;-60
2023/12/13 08:44:10;;;;;;;0.50;0.20;;;8.40;99.90;;;;;;5125690;27;20850;-60
2023/12/13 08:46:38;;;;;;;0.40;0.20;;;8.40;99.90;;;;;;5133658;27;20440;-60
2023/12/13 08:49:05;;;;;;;1.30;0.20;;;8.40;99.90;;;;;;5126725;27;20861;-60
2023/12/13 08:51:32;;;;;;;0.50;0.20;;;8.50;99.90;;;;;;5119314;27;20454;-60
2023/12/13 08:53:59;;;;;;;0.85;0.20;;;8.50;99.90;;;;;;5118631;27;20483;-60
2023/12/13 08:56:26;;;;;;;0.70;0.30;;;8.50;99.90;;;;;;5117548;27;20741;-60
2023/12/13 08:58:55;;;;;;;0.65;0.20;;;8.50;99.90;;;;;;5123102;27;20430;-59
2023/12/13 09:01:22;;;;;;;1.40;0.20;;;8.50;99.90;;;;;;5129966;27;20905;-60
2023/12/13 09:03:48;;;;;;;1.30;0.20;;;8.50;99.90;;;;;;5119061;27;20516;-60
2023/12/13 09:06:17;;;;;;;1.00;0.20;;;8.60;99.90;;;;;;5123730;27;20434;-60
2023/12/13 09:08:45;;;;;;;2.10;0.20;;;8.70;99.90;;;;;;5122580;27;20422;-60
2023/12/13 09:11:12;;;;;;;0.40;0.20;;;8.80;99.90;;;;;;5126669;28;20525;-60
2023/12/13 09:13:39;;;;;;;0.35;0.20;;;8.90;99.90;;;;;;5131966;28;20418;-59
2023/12/13 09:16:08;;;;;;;0.50;0.20;;;8.90;99.90;;;;;;5130519;28;20434;-60
2023/12/13 09:18:35;;;;;;;1.83;0.20;;;8.90;99.90;;;;;;5127230;28;20428;-60
2023/12/13 09:21:03;;;;;;;0.60;0.20;;;8.90;99.90;;;;;;5124276;27;20487;-60
2023/12/13 09:23:32;;;;;;;0.40;0.20;;;8.90;99.90;;;;;;5131311;28;20487;-60
2023/12/13 09:25:59;;;;;;;0.50;0.20;;;8.90;99.90;;;;;;5122108;28;20437;-59
2023/12/13 09:28:29;;;;;;;0.50;0.20;;;9.00;99.90;;;;;;5129321;28;20521;-59
2023/12/13 09:30:56;;;;;;;0.40;0.20;;;9.00;99.90;;;;;;5120927;28;20440;-59
2023/12/13 09:33:24;;;;;;;0.50;0.20;;;9.00;99.90;;;;;;5127966;28;20453;-58
2023/12/13 09:35:53;;;;;;;1.00;0.30;;;9.10;99.90;;;;;;5121358;28;20422;-58
2023/12/13 09:38:21;;;;;;;1.23;0.30;;;9.10;99.90;;;;;;5131743;28;20442;-58
2023/12/13 09:40:48;;;;;;;0.50;0.20;;;9.10;99.90;;;;;;5107043;28;20437;-58
2023/12/13 09:43:15;;;;;;;2.00;0.30;;;9.20;99.90;;;;;;5135396;27;20533;-59
2023/12/13 09:45:44;;;;;;;1.02;0.30;;;9.40;99.90;;;;;;5118655;27;20495;-59
2023/12/13 09:48:13;;;;;;;0.80;0.30;;;9.50;99.90;;;;;;5130585;28;20415;-58
2023/12/13 09:50:43;;;;;;;1.17;0.30;;;9.40;99.90;;;;;;5124047;28;20722;-60
2023/12/13 09:53:11;;;;;;;1.07;0.30;;;9.50;99.90;;;;;;5130247;27;20487;-59
2023/12/13 09:55:39;;;;;;;2.22;0.40;;;9.50;99.90;;;;;;5134878;27;20593;-60
2023/12/13 09:58:06;;;;;;;0.50;0.20;;;9.50;99.90;;;;;;5139838;27;20440;-59
2023/12/13 10:00:33;;;;;;;0.68;0.30;;;9.60;99.90;;;;;;5147026;27;20434;-59
2023/12/13 10:03:00;;;;;;;0.90;0.20;;;9.60;99.90;;;;;;5136243;27;20425;-60
2023/12/13 10:05:32;;;;;;;0.50;0.30;;;9.60;99.90;;;;;;5135421;27;20442;-61
2023/12/13 10:08:03;;;;;;;0.70;0.20;;;9.60;99.90;;;;;;5133413;27;20438;-60
2023/12/13 10:10:31;;;;;;;0.90;0.30;;;9.60;99.90;;;;;;5134443;27;20806;-59
2023/12/13 10:12:59;;;;;;;0.80;0.38;;;9.60;99.90;;;;;;5137645;27;20524;-59
2023/12/13 10:15:31;;;;;;;0.77;0.30;;;9.60;99.90;;;;;;5133731;27;20438;-60
2023/12/13 10:17:58;;;;;;;0.50;0.20;;;9.60;99.90;;;;;;5132353;27;20434;-59
2023/12/13 10:20:26;;;;;;;1.20;0.30;;;9.60;99.90;;;;;;5129549;27;20441;-59
2023/12/13 10:22:53;;;;;;;0.57;0.30;;;9.70;99.90;;;;;;5124997;27;20426;-60
2023/12/13 10:25:22;;;;;;;0.70;0.30;;;9.80;99.90;;;;;;5133246;27;20434;-59
2023/12/13 10:27:51;;;;;;;0.40;0.20;;;9.80;99.90;;;;;;5119868;27;20474;-60
2023/12/13 10:30:19;;;;;;;1.07;0.30;;;9.80;99.90;;;;;;5134437;27;20434;-60
2023/12/13 10:32:46;;;;;;;0.90;0.40;;;9.90;99.90;;;;;;5134405;27;20562;-59
2023/12/13 10:35:13;;;;;;;1.30;0.30;;;9.90;99.90;;;;;;5133748;27;21037;-59
2023/12/13 10:37:42;;;;;;;1.00;0.30;;;9.90;99.90;;;;;;5131191;27;20801;-59
2023/12/13 10:40:13;;;;;;;1.60;0.40;;;9.90;99.90;;;;;;5133887;27;20881;-59
2023/12/13 10:42:46;;;;;;;0.50;0.30;;;9.90;99.90;;;;;;5135899;27;20460;-59
2023/12/13 10:45:14;;;;;;;0.68;0.30;;;9.90;99.90;;;;;;5126334;27;20436;-60
2023/12/13 10:47:46;;;;;;;1.60;0.30;;;9.80;99.90;;;;;;5119157;27;20719;-59
2023/12/13 10:50:13;;;;;;;0.60;0.30;;;9.80;99.90;;;;;;5133197;27;20441;-59
2023/12/13 10:52:42;;;;;;;1.00;0.40;;;9.80;99.90;;;;;;5134786;27;20475;-59
2023/12/13 10:55:10;;;;;;;0.50;0.30;;;9.80;99.90;;;;;;5116884;27;20430;-59
2023/12/13 10:57:37;;;;;;;0.60;0.30;;;9.80;99.90;;;;;;5134929;27;20519;-60
2023/12/13 11:00:08;;;;;;;0.70;0.32;;;9.80;99.90;;;;;;5128207;27;20511;-60
2023/12/13 11:02:49;;;;;;;2.00;0.30;;;9.90;99.90;;;;;;5127918;27;20479;-59
2023/12/13 11:05:16;;;;;;;0.50;0.22;;;9.90;99.90;;;;;;5134302;27;20896;-60
2023/12/13 11:07:44;;;;;;;0.77;0.25;;;10.00;99.90;;;;;;5122544;27;20493;-60
2023/12/13 11:10:13;;;;;;;0.55;0.20;;;10.00;99.90;;;;;;5114971;27;20440;-59
2023/12/13 11:12:49;;;;;;;0.70;0.20;;;10.10;99.90;;;;;;5123701;27;20487;-60
2023/12/13 11:15:18;;;;;;;0.52;0.20;;;10.00;99.90;;;;;;5117765;27;20926;-59
2023/12/13 11:17:48;;;;;;;0.50;0.20;;;10.10;99.90;;;;;;5125282;27;20430;-60
2023/12/13 11:20:15;;;;;;;0.40;0.20;;;10.10;99.90;;;;;;5126782;27;20799;-58
2023/12/13 11:22:47;;;;;;;0.40;0.20;;;10.10;99.90;;;;;;5132556;27;20449;-58
2023/12/13 11:25:14;;;;;;;0.50;0.30;;;10.20;99.90;;;;;;5127955;27;20785;-58
2023/12/13 11:27:51;;;;;;;0.60;0.30;;;10.20;99.90;;;;;;5129502;27;20479;-59
2023/12/13 11:30:21;;;;;;;1.30;0.30;;;10.30;99.90;;;;;;5116622;27;20563;-59
2023/12/13 11:32:49;;;;;;;0.80;0.40;;;10.40;99.90;;;;;;5123104;27;20428;-58
2023/12/13 11:35:18;;;;;;;0.50;0.22;;;10.40;99.90;;;;;;5110412;27;20780;-58
2023/12/13 11:37:49;;;;;;;0.82;0.32;;;10.40;99.90;;;;;;5130337;27;20445;-57
2023/12/13 11:40:16;;;;;;;0.80;0.30;;;10.40;99.90;;;;;;5127859;27;20436;-56
2023/12/13 11:42:43;;;;;;;0.50;0.30;;;10.40;99.90;;;;;;5110653;28;20544;-58
2023/12/13 11:45:11;;;;;;;0.40;0.20;;;10.40;99.90;;;;;;5128032;27;20479;-58
2023/12/13 11:47:40;;;;;;;0.60;0.30;;;10.50;99.90;;;;;;5116001;28;20427;-59
2023/12/13 11:50:10;;;;;;;0.50;0.20;;;10.50;99.90;;;;;;5120944;27;20912;-58
2023/12/13 11:52:37;;;;;;;0.65;0.20;;;10.50;99.90;;;;;;5115001;28;20461;-59
2023/12/13 11:55:07;;;;;;;0.43;0.20;;;10.50;99.90;;;;;;5123585;27;20438;-58
2023/12/13 11:57:34;;;;;;;0.52;0.30;;;10.50;99.90;;;;;;5118682;27;20498;-59
2023/12/13 12:00:02;;;;;;;0.40;0.20;;;10.50;99.90;;;;;;5124937;27;20434;-59
2023/12/13 12:02:29;;;;;;;0.50;0.30;;;10.50;99.90;;;;;;5122872;27;20442;-59
2023/12/13 12:05:01;;;;;;;0.80;0.20;;;10.50;99.00;;;;;;5130251;27;20982;-58
2023/12/13 12:07:28;;;;;;;0.40;0.20;;;10.60;99.90;;;;;;5133612;27;20503;-58
2023/12/13 12:09:56;;;;;;;0.50;0.20;;;10.70;98.20;;;;;;5133765;27;20422;-59
2023/12/13 12:12:25;;;;;;;0.50;0.30;;;10.70;99.00;;;;;;5111083;28;20503;-59
2023/12/13 12:14:52;;;;;;;1.10;0.30;;;10.80;80.30;;;;;;5113833;27;20424;-58
2023/12/13 12:17:20;;;;;;;0.60;0.30;;;10.80;92.40;;;;;;5131010;27;20445;-60
2023/12/13 12:19:48;;;;;;;0.45;0.20;;;10.80;98.40;;;;;;5129544;27;20422;-61
2023/12/13 12:22:17;;;;;;;0.50;0.28;;;10.90;96.40;;;;;;5132898;27;20434;-58
2023/12/13 12:24:47;;;;;;;1.10;0.40;;;11.00;71.70;;;;;;5128771;27;20436;-58
2023/12/13 12:27:14;;;;;;;0.50;0.20;;;11.10;51.30;;;;;;5129839;27;20483;-59
2023/12/13 12:29:41;;;;;;;0.70;0.30;;;11.10;42.20;;;;;;5120034;27;20430;-58
2023/12/13 12:32:09;;;;;;;0.40;0.20;;;11.20;46.30;;;;;;5131842;27;21020;-58
2023/12/13 12:34:38;;;;;;;0.60;0.20;;;11.20;41.80;;;;;;5132647;27;20430;-60
2023/12/13 12:37:05;;;;;;;0.40;0.20;;;11.30;31.90;;;;;;5131267;27;20525;-58
2023/12/13 12:39:34;;;;;;;0.50;0.20;;;11.30;49.00;;;;;;5126065;27;20439;-59
2023/12/13 12:42:03;;;;;;;0.70;0.20;;;11.40;41.80;;;;;;5126395;27;20495;-59
2023/12/13 12:44:30;;;;;;;0.63;0.30;;;11.50;44.90;;;;;;5132726;27;20434;-60
2023/12/13 12:46:59;;;;;;;1.00;0.40;;;11.60;44.70;;;;;;5116378;27;20458;-59
2023/12/13 12:49:26;;;;;;;0.50;0.20;;;11.60;46.60;;;;;;5120042;27;20436;-60
2023/12/13 12:51:53;;;;;;;2.00;0.30;;;11.60;41.80;;;;;;5118103;27;20447;-59
2023/12/13 12:54:20;;;;;;;0.80;0.20;;;11.70;53.20;;;;;;5113671;28;20400;-60
2023/12/13 12:56:48;;;;;;;0.45;0.20;;;11.70;14.00;;;;;;5122132;27;20852;-60